Time;durP1;ratioP1;P1;durP2;ratioP2;P2;SDS_P1;SDS_P2;PMS_P1;PMS_P2;Temp;Humidity;BMP_temperature;BMP_pressure;BME280_temperature;BME280_humidity;BME280_pressure;Samples;Min_cycle;Max_cycle;Signal;HPM_P1;HPM_P2
2023/03/16 00:00:57;;;;;;;;;;;;;;;;;;7363624;19;820;-66
2023/03/16 00:03:29;;;;;;;;;;;;;;;;;;7362888;19;1301;-67
2023/03/16 00:05:57;;;;;;;;;;;;;;;;;;7364020;19;774;-67
2023/03/16 00:08:25;;;;;;;;;;;;;;;;;;7360538;19;1851;-68
2023/03/16 00:10:53;;;;;;;;;;;;;;;;;;7362118;19;765;-67
2023/03/16 00:13:22;;;;;;;;;;;;;;;;;;7371965;19;1315;-66
2023/03/16 00:15:50;;;;;;;;;;;;;;;;;;7369810;19;811;-66
2023/03/16 00:18:18;;;;;;;;;;;;;;;;;;7369809;19;814;-65
2023/03/16 00:20:46;;;;;;;;;;;;;;;;;;7369342;19;822;-65
2023/03/16 00:23:15;;;;;;;;;;;;;;;;;;7369313;19;1269;-65
2023/03/16 00:25:43;;;;;;;;;;;;;;;;;;7369289;19;769;-65
2023/03/16 00:28:12;;;;;;;;;;;;;;;;;;7365381;19;1846;-66
2023/03/16 00:30:41;;;;;;;;;;;;;;;;;;7369134;19;856;-66
2023/03/16 00:33:09;;;;;;;;;;;;;;;;;;7368062;19;1329;-66
2023/03/16 00:35:37;;;;;;;;;;;;;;;;;;7372557;19;1636;-66
2023/03/16 00:38:06;;;;;;;;;;;;;;;;;;7370814;19;1854;-65
2023/03/16 00:40:34;;;;;;;;;;;;;;;;;;7368658;19;1948;-66
2023/03/16 00:43:02;;;;;;;;;;;;;;;;;;7369550;19;1901;-65
2023/03/16 00:45:31;;;;;;;;;;;;;;;;;;7368194;19;1839;-65
2023/03/16 00:48:00;;;;;;;;;;;;;;;;;;7367050;19;2333;-64
2023/03/16 00:50:29;;;;;;;;;;;;;;;;;;7371153;19;1907;-65
2023/03/16 00:52:57;;;;;;;;;;;;;;;;;;7370177;19;2253;-64
2023/03/16 00:55:26;;;;;;;;;;;;;;;;;;7367520;19;1894;-65
2023/03/16 00:57:54;;;;;;;;;;;;;;;;;;7368933;19;1858;-65
2023/03/16 01:00:27;;;;;;;;;;;;;;;;;;7366276;19;1957;-65
2023/03/16 01:02:55;;;;;;;;;;;;;;;;;;7370525;19;1942;-65
2023/03/16 01:05:23;;;;;;;;;;;;;;;;;;7369314;19;1825;-65
2023/03/16 01:07:53;;;;;;;;;;;;;;;;;;7368488;19;1904;-65
2023/03/16 01:10:21;;;;;;;;;;;;;;;;;;7368579;19;1884;-66
2023/03/16 01:12:54;;;;;;;;;;;;;;;;;;7368384;19;1755;-65
2023/03/16 01:15:23;;;;;;;;;;;;;;;;;;7369057;19;1820;-66
2023/03/16 01:17:51;;;;;;;;;;;;;;;;;;7370676;19;1819;-65
2023/03/16 01:20:20;;;;;;;;;;;;;;;;;;7372172;19;1853;-65
2023/03/16 01:22:48;;;;;;;;;;;;;;;;;;7368328;19;1714;-66
2023/03/16 01:25:17;;;;;;;;;;;;;;;;;;7367666;19;1862;-66
2023/03/16 01:27:45;;;;;;;;;;;;;;;;;;7365166;19;1849;-66
2023/03/16 01:30:13;;;;;;;;;;;;;;;;;;7370428;19;1911;-66
2023/03/16 01:32:42;;;;;;;;;;;;;;;;;;7367747;19;1673;-63
2023/03/16 01:35:12;;;;;;;;;;;;;;;;;;7369809;19;1859;-66
2023/03/16 01:37:40;;;;;;;;;;;;;;;;;;7368575;19;1764;-65
2023/03/16 01:40:17;;;;;;;;;;;;;;;;;;7368016;19;1918;-65
2023/03/16 01:42:45;;;;;;;;;;;;;;;;;;7368911;19;1775;-65
2023/03/16 01:45:14;;;;;;;;;;;;;;;;;;7371983;19;1921;-66
2023/03/16 01:47:42;;;;;;;;;;;;;;;;;;7366870;19;1861;-65
2023/03/16 01:50:16;;;;;;;;;;;;;;;;;;7372403;19;1514;-67
2023/03/16 01:52:44;;;;;;;;;;;;;;;;;;7370007;19;1893;-65
2023/03/16 01:55:13;;;;;;;;;;;;;;;;;;7369474;19;1909;-65
2023/03/16 01:57:42;;;;;;;;;;;;;;;;;;7369235;19;2109;-65
2023/03/16 02:00:17;;;;;;;;;;;;;;;;;;7370437;19;1731;-65
2023/03/16 02:02:53;;;;;;;;;;;;;;;;;;7370017;19;1530;-65
2023/03/16 02:05:28;;;;;;;;;;;;;;;;;;7369897;19;1887;-65
2023/03/16 02:07:59;;;;;;;;;;;;;;;;;;7364234;19;1869;-66
2023/03/16 02:10:27;;;;;;;;;;;;;;;;;;7366968;19;1765;-65
2023/03/16 02:12:56;;;;;;;;;;;;;;;;;;7368614;19;1502;-66
2023/03/16 02:15:26;;;;;;;;;;;;;;;;;;7368397;19;1961;-64
2023/03/16 02:17:54;;;;;;;;;;;;;;;;;;7369737;19;1816;-65
2023/03/16 02:20:24;;;;;;;;;;;;;;;;;;7368589;19;1843;-65
2023/03/16 02:22:52;;;;;;;;;;;;;;;;;;7368329;19;1890;-65
2023/03/16 02:25:21;;;;;;;;;;;;;;;;;;7368127;19;2199;-66
2023/03/16 02:27:49;;;;;;;;;;;;;;;;;;7364514;19;1852;-65
2023/03/16 02:30:17;;;;;;;;;;;;;;;;;;7368256;19;1882;-66
2023/03/16 02:32:59;;;;;;;;;;;;;;;;;;7367256;19;1861;-66
2023/03/16 02:35:27;;;;;;;;;;;;;;;;;;7365982;19;1872;-66
2023/03/16 02:37:55;;;;;;;;;;;;;;;;;;7364714;19;804;-65
2023/03/16 02:40:26;;;;;;;;;;;;;;;;;;7370210;19;1880;-65
2023/03/16 02:43:01;;;;;;;;;;;;;;;;;;7366297;19;1763;-66
2023/03/16 02:45:32;;;;;;;;;;;;;;;;;;7371116;19;1858;-65
2023/03/16 02:48:02;;;;;;;;;;;;;;;;;;7365337;19;1877;-64
2023/03/16 02:50:31;;;;;;;;;;;;;;;;;;7371481;19;1709;-65
2023/03/16 02:52:59;;;;;;;;;;;;;;;;;;7370234;19;1648;-66
2023/03/16 02:55:27;;;;;;;;;;;;;;;;;;7366560;19;1897;-66
2023/03/16 02:57:55;;;;;;;;;;;;;;;;;;7368079;19;2127;-66
2023/03/16 03:00:24;;;;;;;;;;;;;;;;;;7371158;19;2172;-66
2023/03/16 03:02:53;;;;;;;;;;;;;;;;;;7370960;19;1419;-65
2023/03/16 03:05:21;;;;;;;;;;;;;;;;;;7369890;19;1830;-65
2023/03/16 03:07:50;;;;;;;;;;;;;;;;;;7367073;19;2170;-66
2023/03/16 03:10:18;;;;;;;;;;;;;;;;;;7366792;19;1890;-65
2023/03/16 03:12:48;;;;;;;;;;;;;;;;;;7365060;19;1898;-65
2023/03/16 03:15:16;;;;;;;;;;;;;;;;;;7365046;19;2115;-66
2023/03/16 03:17:54;;;;;;;;;;;;;;;;;;7363812;19;713;-66
2023/03/16 03:20:22;;;;;;;;;;;;;;;;;;7365908;19;1837;-66
2023/03/16 03:22:51;;;;;;;;;;;;;;;;;;7365075;19;1896;-65
2023/03/16 03:25:19;;;;;;;;;;;;;;;;;;7366755;19;1741;-65
2023/03/16 03:27:47;;;;;;;;;;;;;;;;;;7365970;19;1853;-65
2023/03/16 03:30:18;;;;;;;;;;;;;;;;;;7364743;19;1866;-65
2023/03/16 03:32:46;;;;;;;;;;;;;;;;;;7366356;19;1903;-66
2023/03/16 03:35:14;;;;;;;;;;;;;;;;;;7366531;19;1859;-65
2023/03/16 03:37:44;;;;;;;;;;;;;;;;;;7366584;19;1903;-64
2023/03/16 03:40:12;;;;;;;;;;;;;;;;;;7364145;19;1734;-66
2023/03/16 03:42:42;;;;;;;;;;;;;;;;;;7364624;19;1904;-65
2023/03/16 03:45:11;;;;;;;;;;;;;;;;;;7365771;19;1895;-65
2023/03/16 03:47:40;;;;;;;;;;;;;;;;;;7364184;19;1878;-65
2023/03/16 03:50:09;;;;;;;;;;;;;;;;;;7363569;19;1658;-66
2023/03/16 03:52:46;;;;;;;;;;;;;;;;;;7363409;19;1890;-65
2023/03/16 03:55:14;;;;;;;;;;;;;;;;;;7364564;19;1857;-65
2023/03/16 03:57:42;;;;;;;;;;;;;;;;;;7363695;19;2095;-66
2023/03/16 04:00:12;;;;;;;;;;;;;;;;;;7364617;19;1659;-65
2023/03/16 04:02:44;;;;;;;;;;;;;;;;;;7363631;19;2166;-65
2023/03/16 04:05:20;;;;;;;;;;;;;;;;;;7364170;19;1872;-66
2023/03/16 04:07:53;;;;;;;;;;;;;;;;;;7360254;19;1861;-66
2023/03/16 04:10:22;;;;;;;;;;;;;;;;;;7364412;19;1896;-66
2023/03/16 04:12:50;;;;;;;;;;;;;;;;;;7363005;19;1950;-65
2023/03/16 04:15:18;;;;;;;;;;;;;;;;;;7364828;19;1934;-65
2023/03/16 04:18:15;;;;;;;;;;;;;;;;;;7361387;19;1247;-67
2023/03/16 04:20:44;;;;;;;;;;;;;;;;;;7365648;19;2179;-67
2023/03/16 04:23:16;;;;;;;;;;;;;;;;;;7360866;19;1361;-67
2023/03/16 04:25:44;;;;;;;;;;;;;;;;;;7364678;19;1883;-67
2023/03/16 04:28:16;;;;;;;;;;;;;;;;;;7363895;19;1906;-67
2023/03/16 04:30:45;;;;;;;;;;;;;;;;;;7366553;19;1866;-67
2023/03/16 04:33:19;;;;;;;;;;;;;;;;;;7362113;19;1879;-66
2023/03/16 04:35:47;;;;;;;;;;;;;;;;;;7366074;19;1822;-66
2023/03/16 04:38:17;;;;;;;;;;;;;;;;;;7364453;19;1757;-66
2023/03/16 04:40:54;;;;;;;;;;;;;;;;;;7364218;19;1939;-66
2023/03/16 04:43:25;;;;;;;;;;;;;;;;;;7360959;19;1903;-65
2023/03/16 04:45:57;;;;;;;;;;;;;;;;;;7364967;19;1906;-65
2023/03/16 04:48:29;;;;;;;;;;;;;;;;;;7359719;19;1854;-66
2023/03/16 04:50:57;;;;;;;;;;;;;;;;;;7361441;19;1933;-65
2023/03/16 04:53:26;;;;;;;;;;;;;;;;;;7360864;19;1950;-65
2023/03/16 04:55:59;;;;;;;;;;;;;;;;;;7364050;19;1888;-65
2023/03/16 04:58:28;;;;;;;;;;;;;;;;;;7369891;19;1866;-65
2023/03/16 05:00:57;;;;;;;;;;;;;;;;;;7370462;19;1929;-65
2023/03/16 05:03:29;;;;;;;;;;;;;;;;;;7370517;19;2136;-65
2023/03/16 05:05:57;;;;;;;;;;;;;;;;;;7370452;19;1872;-65
2023/03/16 05:08:27;;;;;;;;;;;;;;;;;;7365760;19;1834;-66
2023/03/16 05:10:56;;;;;;;;;;;;;;;;;;7370027;19;1926;-65
2023/03/16 05:13:24;;;;;;;;;;;;;;;;;;7367750;19;1278;-65
2023/03/16 05:15:54;;;;;;;;;;;;;;;;;;7369675;19;1821;-65
2023/03/16 05:18:32;;;;;;;;;;;;;;;;;;7369804;19;1857;-65
2023/03/16 05:21:00;;;;;;;;;;;;;;;;;;7369540;19;1940;-65
2023/03/16 05:23:35;;;;;;;;;;;;;;;;;;7366877;19;2004;-65
2023/03/16 05:26:05;;;;;;;;;;;;;;;;;;7370723;19;1844;-65
2023/03/16 05:28:36;;;;;;;;;;;;;;;;;;7369730;19;1870;-64
2023/03/16 05:31:07;;;;;;;;;;;;;;;;;;7370520;19;1869;-66
2023/03/16 05:33:43;;;;;;;;;;;;;;;;;;7369610;19;2200;-65
2023/03/16 05:36:16;;;;;;;;;;;;;;;;;;7369986;19;1913;-65
2023/03/16 05:38:46;;;;;;;;;;;;;;;;;;7369694;19;1987;-65
2023/03/16 05:41:23;;;;;;;;;;;;;;;;;;7370620;19;1777;-65
2023/03/16 05:44:03;;;;;;;;;;;;;;;;;;7367129;19;1909;-65
2023/03/16 05:46:40;;;;;;;;;;;;;;;;;;7370942;19;1858;-65
2023/03/16 05:49:11;;;;;;;;;;;;;;;;;;7363624;19;1857;-65
2023/03/16 05:51:39;;;;;;;;;;;;;;;;;;7369101;19;1742;-64
2023/03/16 05:54:08;;;;;;;;;;;;;;;;;;7363876;19;1282;-65
2023/03/16 05:56:44;;;;;;;;;;;;;;;;;;7365625;19;750;-65
2023/03/16 05:59:12;;;;;;;;;;;;;;;;;;7365339;19;767;-66
2023/03/16 06:01:42;;;;;;;;;;;;;;;;;;7367548;19;1592;-65
2023/03/16 06:04:10;;;;;;;;;;;;;;;;;;7366840;19;1888;-66
2023/03/16 06:06:42;;;;;;;;;;;;;;;;;;7369903;19;1548;-65
2023/03/16 06:09:17;;;;;;;;;;;;;;;;;;7363853;19;1948;-65
2023/03/16 06:11:45;;;;;;;;;;;;;;;;;;7366881;19;1826;-65
2023/03/16 06:14:16;;;;;;;;;;;;;;;;;;7362803;19;1337;-65
2023/03/16 06:16:45;;;;;;;;;;;;;;;;;;7369073;19;1936;-65
2023/03/16 06:19:14;;;;;;;;;;;;;;;;;;7364856;19;763;-65
2023/03/16 06:21:42;;;;;;;;;;;;;;;;;;7368276;19;1745;-66
2023/03/16 06:24:12;;;;;;;;;;;;;;;;;;7366755;19;1848;-66
2023/03/16 06:26:41;;;;;;;;;;;;;;;;;;7369580;19;1830;-64
2023/03/16 06:29:12;;;;;;;;;;;;;;;;;;7364436;19;1857;-65
2023/03/16 06:31:41;;;;;;;;;;;;;;;;;;7367494;19;1913;-65
2023/03/16 06:34:10;;;;;;;;;;;;;;;;;;7362833;19;1309;-66
2023/03/16 06:36:39;;;;;;;;;;;;;;;;;;7368998;19;1876;-64
2023/03/16 06:39:10;;;;;;;;;;;;;;;;;;7364694;19;1844;-66
2023/03/16 06:41:41;;;;;;;;;;;;;;;;;;7366818;19;1815;-66
2023/03/16 06:44:10;;;;;;;;;;;;;;;;;;7362036;19;1286;-66
2023/03/16 06:46:43;;;;;;;;;;;;;;;;;;7367286;19;1854;-66
2023/03/16 06:49:11;;;;;;;;;;;;;;;;;;7362178;19;1882;-66
2023/03/16 06:51:40;;;;;;;;;;;;;;;;;;7366572;19;1886;-66
2023/03/16 06:54:08;;;;;;;;;;;;;;;;;;7365024;19;1938;-66
2023/03/16 06:56:40;;;;;;;;;;;;;;;;;;7365627;19;1774;-66
2023/03/16 06:59:08;;;;;;;;;;;;;;;;;;7363788;19;1895;-66
2023/03/16 07:01:38;;;;;;;;;;;;;;;;;;7367458;19;1831;-67
2023/03/16 07:04:06;;;;;;;;;;;;;;;;;;7366673;19;1937;-65
2023/03/16 07:06:35;;;;;;;;;;;;;;;;;;7367151;19;1893;-66
2023/03/16 07:09:04;;;;;;;;;;;;;;;;;;7365556;19;1892;-66
2023/03/16 07:11:32;;;;;;;;;;;;;;;;;;7365563;19;1909;-66
2023/03/16 07:14:00;;;;;;;;;;;;;;;;;;7362035;19;1781;-66
2023/03/16 07:16:30;;;;;;;;;;;;;;;;;;7363262;19;808;-66
2023/03/16 07:19:00;;;;;;;;;;;;;;;;;;7362922;19;810;-66
2023/03/16 07:21:30;;;;;;;;;;;;;;;;;;7360316;19;800;-65
2023/03/16 07:23:59;;;;;;;;;;;;;;;;;;7361390;19;1313;-66
2023/03/16 07:26:31;;;;;;;;;;;;;;;;;;7362905;19;710;-66
2023/03/16 07:29:00;;;;;;;;;;;;;;;;;;7361751;19;1833;-66
2023/03/16 07:31:31;;;;;;;;;;;;;;;;;;7363906;19;795;-67
2023/03/16 07:34:01;;;;;;;;;;;;;;;;;;7361474;19;1337;-65
2023/03/16 07:36:37;;;;;;;;;;;;;;;;;;7365808;19;987;-67
2023/03/16 07:39:06;;;;;;;;;;;;;;;;;;7364651;19;823;-65
2023/03/16 07:41:35;;;;;;;;;;;;;;;;;;7366615;19;1785;-66
2023/03/16 07:44:16;;;;;;;;;;;;;;;;;;7361904;19;1318;-66
2023/03/16 07:46:48;;;;;;;;;;;;;;;;;;7362683;19;781;-67
2023/03/16 07:49:18;;;;;;;;;;;;;;;;;;7363145;19;1857;-65
2023/03/16 07:51:48;;;;;;;;;;;;;;;;;;7363632;19;756;-65
2023/03/16 07:54:17;;;;;;;;;;;;;;;;;;7361697;19;1325;-64
2023/03/16 07:56:45;;;;;;;;;;;;;;;;;;7364015;19;914;-67
2023/03/16 07:59:17;;;;;;;;;;;;;;;;;;7365036;19;1921;-65
2023/03/16 08:01:45;;;;;;;;;;;;;;;;;;7363019;19;830;-66
2023/03/16 08:04:13;;;;;;;;;;;;;;;;;;7361877;19;1301;-67
2023/03/16 08:06:41;;;;;;;;;;;;;;;;;;7363332;19;723;-66
2023/03/16 08:09:10;;;;;;;;;;;;;;;;;;7361630;19;1866;-67
2023/03/16 08:11:40;;;;;;;;;;;;;;;;;;7363369;19;811;-67
2023/03/16 08:14:08;;;;;;;;;;;;;;;;;;7361843;19;1336;-67
2023/03/16 08:17:00;;;;;;;;;;;;;;;;;;7362602;19;786;-66
2023/03/16 08:19:29;;;;;;;;;;;;;;;;;;7361804;19;775;-66
2023/03/16 08:22:00;;;;;;;;;;;;;;;;;;7363015;19;826;-66
2023/03/16 08:24:29;;;;;;;;;;;;;;;;;;7359672;19;1293;-67
2023/03/16 08:26:58;;;;;;;;;;;;;;;;;;7362671;19;1928;-67
2023/03/16 08:29:27;;;;;;;;;;;;;;;;;;7361819;19;1837;-68
2023/03/16 08:31:55;;;;;;;;;;;;;;;;;;7362299;19;786;-67
2023/03/16 08:34:30;;;;;;;;;;;;;;;;;;7366688;19;1326;-67
2023/03/16 08:36:58;;;;;;;;;;;;;;;;;;7367854;19;1605;-68
2023/03/16 08:39:27;;;;;;;;;;;;;;;;;;7368252;19;799;-67
2023/03/16 08:41:56;;;;;;;;;;;;;;;;;;7369857;19;1863;-67
2023/03/16 08:44:30;;;;;;;;;;;;;;;;;;7370842;19;2145;-69
2023/03/16 08:46:58;;;;;;;;;;;;;;;;;;7370151;19;802;-67
2023/03/16 08:49:27;;;;;;;;;;;;;;;;;;7367118;19;1850;-66
2023/03/16 08:52:04;;;;;;;;;;;;;;;;;;7372371;19;1922;-66
2023/03/16 08:54:32;;;;;;;;;;;;;;;;;;7371675;19;1903;-66
2023/03/16 08:57:00;;;;;;;;;;;;;;;;;;7369100;19;1733;-66
2023/03/16 08:59:28;;;;;;;;;;;;;;;;;;7371447;19;1534;-66
2023/03/16 09:01:56;;;;;;;;;;;;;;;;;;7368490;19;845;-66
2023/03/16 09:04:25;;;;;;;;;;;;;;;;;;7371184;19;1411;-65
2023/03/16 09:06:53;;;;;;;;;;;;;;;;;;7368265;19;1789;-66
2023/03/16 09:09:21;;;;;;;;;;;;;;;;;;7368349;19;2139;-63
2023/03/16 09:11:49;;;;;;;;;;;;;;;;;;7371442;19;2093;-66
2023/03/16 09:14:17;;;;;;;;;;;;;;;;;;7366129;19;1291;-66
2023/03/16 09:16:45;;;;;;;;;;;;;;;;;;7369905;19;735;-67
2023/03/16 09:19:14;;;;;;;;;;;;;;;;;;7368877;19;751;-67
2023/03/16 09:21:43;;;;;;;;;;;;;;;;;;7372787;19;1857;-67
2023/03/16 09:24:13;;;;;;;;;;;;;;;;;;7369965;19;1331;-64
2023/03/16 09:26:41;;;;;;;;;;;;;;;;;;7372507;19;1844;-64
2023/03/16 09:29:09;;;;;;;;;;;;;;;;;;7375317;19;1861;-67
2023/03/16 09:31:37;;;;;;;;;;;;;;;;;;7382513;19;787;-65
2023/03/16 09:34:05;;;;;;;;;;;;;;;;;;7382288;19;2187;-64
2023/03/16 09:36:34;;;;;;;;;;;;;;;;;;7379372;19;819;-66
2023/03/16 09:39:02;;;;;;;;;;;;;;;;;;7379253;19;884;-66
2023/03/16 09:41:30;;;;;;;;;;;;;;;;;;7380863;19;853;-66
2023/03/16 09:43:58;;;;;;;;;;;;;;;;;;7379475;19;1246;-65
2023/03/16 09:46:28;;;;;;;;;;;;;;;;;;7383852;19;782;-65
2023/03/16 09:48:57;;;;;;;;;;;;;;;;;;7378350;19;861;-66
2023/03/16 09:51:25;;;;;;;;;;;;;;;;;;7378226;19;1826;-67
2023/03/16 09:53:53;;;;;;;;;;;;;;;;;;7379021;19;2143;-66
2023/03/16 09:56:21;;;;;;;;;;;;;;;;;;7368750;19;889;-66
2023/03/16 09:58:49;;;;;;;;;;;;;;;;;;7368465;19;1138;-66
2023/03/16 10:01:18;;;;;;;;;;;;;;;;;;7367818;19;837;-65
2023/03/16 10:03:47;;;;;;;;;;;;;;;;;;7365634;19;1361;-65
2023/03/16 10:06:16;;;;;;;;;;;;;;;;;;7369392;19;912;-66
2023/03/16 10:08:44;;;;;;;;;;;;;;;;;;7366324;19;834;-65
2023/03/16 10:11:12;;;;;;;;;;;;;;;;;;7366634;19;2286;-66
2023/03/16 10:13:41;;;;;;;;;;;;;;;;;;7365424;19;1337;-66
2023/03/16 10:16:09;;;;;;;;;;;;;;;;;;7367500;19;862;-66
2023/03/16 10:18:37;;;;;;;;;;;;;;;;;;7365307;19;803;-66
2023/03/16 10:21:05;;;;;;;;;;;;;;;;;;7368532;19;862;-64
2023/03/16 10:23:34;;;;;;;;;;;;;;;;;;7366707;19;1263;-65
2023/03/16 10:26:02;;;;;;;;;;;;;;;;;;7367145;19;810;-65
2023/03/16 10:28:30;;;;;;;;;;;;;;;;;;7365925;19;786;-65
2023/03/16 10:30:59;;;;;;;;;;;;;;;;;;7364096;19;1842;-65
2023/03/16 10:33:27;;;;;;;;;;;;;;;;;;7365783;19;1266;-65
2023/03/16 10:35:55;;;;;;;;;;;;;;;;;;7367490;19;858;-65
2023/03/16 10:38:23;;;;;;;;;;;;;;;;;;7365911;19;861;-67
2023/03/16 10:40:51;;;;;;;;;;;;;;;;;;7367194;19;800;-67
2023/03/16 10:43:20;;;;;;;;;;;;;;;;;;7366566;19;1298;-66
2023/03/16 10:45:48;;;;;;;;;;;;;;;;;;7367643;19;774;-66
2023/03/16 10:48:17;;;;;;;;;;;;;;;;;;7365892;19;853;-65
2023/03/16 10:50:45;;;;;;;;;;;;;;;;;;7365190;19;1862;-66
2023/03/16 10:53:14;;;;;;;;;;;;;;;;;;7366257;19;1341;-67
2023/03/16 10:55:42;;;;;;;;;;;;;;;;;;7366234;19;886;-67
2023/03/16 10:58:12;;;;;;;;;;;;;;;;;;7366731;19;743;-66
2023/03/16 11:00:40;;;;;;;;;;;;;;;;;;7367351;19;814;-66
2023/03/16 11:03:09;;;;;;;;;;;;;;;;;;7366655;19;1298;-66
2023/03/16 11:05:37;;;;;;;;;;;;;;;;;;7365131;19;874;-65
2023/03/16 11:08:08;;;;;;;;;;;;;;;;;;7366337;19;778;-66
2023/03/16 11:10:36;;;;;;;;;;;;;;;;;;7367251;19;1846;-66
2023/03/16 11:13:05;;;;;;;;;;;;;;;;;;7364792;19;1274;-66
2023/03/16 11:15:33;;;;;;;;;;;;;;;;;;7366572;19;843;-66
2023/03/16 11:18:01;;;;;;;;;;;;;;;;;;7363939;19;812;-66
2023/03/16 11:20:29;;;;;;;;;;;;;;;;;;7367277;19;802;-66
2023/03/16 11:22:57;;;;;;;;;;;;;;;;;;7365775;19;1207;-66
2023/03/16 11:25:27;;;;;;;;;;;;;;;;;;7366618;19;771;-67
2023/03/16 11:27:56;;;;;;;;;;;;;;;;;;7364618;19;858;-66
2023/03/16 11:30:24;;;;;;;;;;;;;;;;;;7365835;19;1850;-67
2023/03/16 11:32:52;;;;;;;;;;;;;;;;;;7365300;19;1258;-65
2023/03/16 11:35:21;;;;;;;;;;;;;;;;;;7366022;19;870;-65
2023/03/16 11:37:49;;;;;;;;;;;;;;;;;;7365565;19;722;-66
2023/03/16 11:40:18;;;;;;;;;;;;;;;;;;7364659;19;866;-65
2023/03/16 11:42:46;;;;;;;;;;;;;;;;;;7365203;19;1363;-65
2023/03/16 11:45:14;;;;;;;;;;;;;;;;;;7365413;19;801;-66
2023/03/16 11:47:42;;;;;;;;;;;;;;;;;;7363801;19;854;-67
2023/03/16 11:50:11;;;;;;;;;;;;;;;;;;7365643;19;1845;-65
2023/03/16 11:52:39;;;;;;;;;;;;;;;;;;7365424;19;815;-65
2023/03/16 11:55:07;;;;;;;;;;;;;;;;;;7362267;19;811;-66
2023/03/16 11:57:36;;;;;;;;;;;;;;;;;;7365259;19;818;-65
2023/03/16 12:00:04;;;;;;;;;;;;;;;;;;7363514;19;791;-65
2023/03/16 12:02:33;;;;;;;;;;;;;;;;;;7364337;19;834;-65
2023/03/16 12:05:01;;;;;;;;;;;;;;;;;;7361813;19;1266;-65
2023/03/16 12:07:30;;;;;;;;;;;;;;;;;;7367506;19;2218;-64
2023/03/16 12:09:59;;;;;;;;;;;;;;;;;;7370013;19;1838;-66
2023/03/16 12:12:28;;;;;;;;;;;;;;;;;;7373899;19;1823;-65
2023/03/16 12:14:56;;;;;;;;;;;;;;;;;;7369090;19;1266;-66
2023/03/16 12:17:25;;;;;;;;;;;;;;;;;;7369914;19;790;-65
2023/03/16 12:19:53;;;;;;;;;;;;;;;;;;7369380;19;775;-65
2023/03/16 12:22:21;;;;;;;;;;;;;;;;;;7369458;19;807;-66
2023/03/16 12:24:49;;;;;;;;;;;;;;;;;;7368421;19;1270;-66
2023/03/16 12:27:17;;;;;;;;;;;;;;;;;;7370399;19;854;-66
2023/03/16 12:29:45;;;;;;;;;;;;;;;;;;7367562;19;916;-66
2023/03/16 12:32:14;;;;;;;;;;;;;;;;;;7368160;19;1838;-66
2023/03/16 12:34:42;;;;;;;;;;;;;;;;;;7367663;19;1328;-66
2023/03/16 12:37:11;;;;;;;;;;;;;;;;;;7370844;19;802;-67
2023/03/16 12:39:39;;;;;;;;;;;;;;;;;;7369301;19;750;-67
2023/03/16 12:42:08;;;;;;;;;;;;;;;;;;7369969;19;834;-66
2023/03/16 12:44:36;;;;;;;;;;;;;;;;;;7367816;19;1243;-66
2023/03/16 12:47:05;;;;;;;;;;;;;;;;;;7370383;19;794;-66
2023/03/16 12:49:34;;;;;;;;;;;;;;;;;;7369749;19;893;-66
2023/03/16 12:52:03;;;;;;;;;;;;;;;;;;7366149;19;1829;-66
2023/03/16 12:54:31;;;;;;;;;;;;;;;;;;7368390;19;1343;-67
2023/03/16 12:56:59;;;;;;;;;;;;;;;;;;7369743;19;847;-66
2023/03/16 12:59:28;;;;;;;;;;;;;;;;;;7368025;19;889;-67
2023/03/16 13:01:56;;;;;;;;;;;;;;;;;;7370164;19;872;-67
2023/03/16 13:04:24;;;;;;;;;;;;;;;;;;7367751;19;1297;-66
2023/03/16 13:06:52;;;;;;;;;;;;;;;;;;7368211;19;842;-65
2023/03/16 13:09:20;;;;;;;;;;;;;;;;;;7368389;19;806;-66
2023/03/16 13:11:49;;;;;;;;;;;;;;;;;;7367131;19;1849;-66
2023/03/16 13:14:17;;;;;;;;;;;;;;;;;;7366706;19;1353;-66
2023/03/16 13:16:46;;;;;;;;;;;;;;;;;;7368841;19;787;-65
2023/03/16 13:19:15;;;;;;;;;;;;;;;;;;7364375;19;778;-65
2023/03/16 13:21:43;;;;;;;;;;;;;;;;;;7369326;19;790;-67
2023/03/16 13:24:11;;;;;;;;;;;;;;;;;;7368499;19;1282;-67
2023/03/16 13:26:39;;;;;;;;;;;;;;;;;;7369056;19;822;-66
2023/03/16 13:29:07;;;;;;;;;;;;;;;;;;7368020;19;797;-65
2023/03/16 13:31:35;;;;;;;;;;;;;;;;;;7367198;19;1868;-66
2023/03/16 13:34:04;;;;;;;;;;;;;;;;;;7366739;19;1357;-64
2023/03/16 13:36:32;;;;;;;;;;;;;;;;;;7368772;19;768;-67
2023/03/16 13:39:00;;;;;;;;;;;;;;;;;;7368170;19;869;-65
2023/03/16 13:41:29;;;;;;;;;;;;;;;;;;7370173;19;866;-66
2023/03/16 13:43:57;;;;;;;;;;;;;;;;;;7368748;19;1330;-66
2023/03/16 13:46:25;;;;;;;;;;;;;;;;;;7369900;19;864;-68
2023/03/16 13:48:53;;;;;;;;;;;;;;;;;;7368466;19;818;-65
2023/03/16 13:51:22;;;;;;;;;;;;;;;;;;7368309;19;1859;-65
2023/03/16 13:53:50;;;;;;;;;;;;;;;;;;7368063;19;1343;-66
2023/03/16 13:56:18;;;;;;;;;;;;;;;;;;7367938;19;969;-67
2023/03/16 13:58:47;;;;;;;;;;;;;;;;;;7368926;19;1931;-66
2023/03/16 14:01:15;;;;;;;;;;;;;;;;;;7371513;19;1535;-66
2023/03/16 14:03:44;;;;;;;;;;;;;;;;;;7364875;19;1648;-66
2023/03/16 14:06:12;;;;;;;;;;;;;;;;;;7366319;19;823;-67
2023/03/16 14:08:40;;;;;;;;;;;;;;;;;;7369984;19;1654;-65
2023/03/16 14:11:08;;;;;;;;;;;;;;;;;;7367059;19;1861;-64
2023/03/16 14:13:38;;;;;;;;;;;;;;;;;;7364747;19;1282;-64
2023/03/16 14:16:06;;;;;;;;;;;;;;;;;;7368718;19;853;-64
2023/03/16 14:18:34;;;;;;;;;;;;;;;;;;7366511;19;750;-65
2023/03/16 14:21:03;;;;;;;;;;;;;;;;;;7369045;19;1888;-65
2023/03/16 14:23:31;;;;;;;;;;;;;;;;;;7366615;19;1342;-66
2023/03/16 14:25:59;;;;;;;;;;;;;;;;;;7367972;19;809;-66
2023/03/16 14:28:27;;;;;;;;;;;;;;;;;;7366914;19;885;-67
2023/03/16 14:30:56;;;;;;;;;;;;;;;;;;7363621;19;1856;-67
2023/03/16 14:33:24;;;;;;;;;;;;;;;;;;7366421;19;1226;-70
2023/03/16 14:35:52;;;;;;;;;;;;;;;;;;7372233;19;1889;-67
2023/03/16 14:38:21;;;;;;;;;;;;;;;;;;7368102;19;790;-66
2023/03/16 14:40:50;;;;;;;;;;;;;;;;;;7367753;19;784;-67
2023/03/16 14:43:18;;;;;;;;;;;;;;;;;;7368259;19;1294;-67
2023/03/16 14:45:47;;;;;;;;;;;;;;;;;;7369408;19;858;-67
2023/03/16 14:48:15;;;;;;;;;;;;;;;;;;7368017;19;1701;-69
2023/03/16 14:50:43;;;;;;;;;;;;;;;;;;7369594;19;1888;-66
2023/03/16 14:53:12;;;;;;;;;;;;;;;;;;7367691;19;1321;-66
2023/03/16 14:55:40;;;;;;;;;;;;;;;;;;7368040;19;818;-65
2023/03/16 14:58:09;;;;;;;;;;;;;;;;;;7367339;19;823;-67
2023/03/16 15:00:37;;;;;;;;;;;;;;;;;;7366921;19;811;-66
2023/03/16 15:03:06;;;;;;;;;;;;;;;;;;7366073;19;1247;-67
2023/03/16 15:05:34;;;;;;;;;;;;;;;;;;7366278;19;825;-67
2023/03/16 15:08:03;;;;;;;;;;;;;;;;;;7365803;19;951;-65
2023/03/16 15:10:31;;;;;;;;;;;;;;;;;;7366106;19;793;-68
2023/03/16 15:13:11;;;;;;;;;;;;;;;;;;7362902;19;1845;-67
2023/03/16 15:15:41;;;;;;;;;;;;;;;;;;7366147;19;639;-67
2023/03/16 15:18:09;;;;;;;;;;;;;;;;;;7366274;19;1849;-67
2023/03/16 15:20:37;;;;;;;;;;;;;;;;;;7365838;19;897;-67
2023/03/16 15:23:05;;;;;;;;;;;;;;;;;;7365198;19;1329;-65
2023/03/16 15:25:35;;;;;;;;;;;;;;;;;;7365963;19;808;-66
2023/03/16 15:28:04;;;;;;;;;;;;;;;;;;7365352;19;1897;-66
2023/03/16 15:30:32;;;;;;;;;;;;;;;;;;7365371;19;885;-67
2023/03/16 15:33:01;;;;;;;;;;;;;;;;;;7362601;19;1846;-66
2023/03/16 15:35:29;;;;;;;;;;;;;;;;;;7365436;19;810;-65
2023/03/16 15:37:57;;;;;;;;;;;;;;;;;;7363855;19;2163;-66
2023/03/16 15:40:25;;;;;;;;;;;;;;;;;;7364741;19;867;-67
2023/03/16 15:42:53;;;;;;;;;;;;;;;;;;7362033;19;1408;-66
2023/03/16 15:45:22;;;;;;;;;;;;;;;;;;7364615;19;815;-66
2023/03/16 15:47:50;;;;;;;;;;;;;;;;;;7364252;19;841;-67
2023/03/16 15:50:18;;;;;;;;;;;;;;;;;;7368846;19;1703;-66
2023/03/16 15:52:46;;;;;;;;;;;;;;;;;;7361961;19;1846;-67
2023/03/16 15:55:14;;;;;;;;;;;;;;;;;;7367293;19;1840;-67
2023/03/16 15:57:44;;;;;;;;;;;;;;;;;;7368029;19;1887;-67
2023/03/16 16:00:12;;;;;;;;;;;;;;;;;;7365708;19;1848;-67
2023/03/16 16:02:40;;;;;;;;;;;;;;;;;;7363710;19;1855;-67
2023/03/16 16:05:08;;;;;;;;;;;;;;;;;;7362092;19;785;-67
2023/03/16 16:07:37;;;;;;;;;;;;;;;;;;7364513;19;865;-67
2023/03/16 16:10:05;;;;;;;;;;;;;;;;;;7364080;19;844;-66
2023/03/16 16:12:33;;;;;;;;;;;;;;;;;;7364779;19;1893;-68
2023/03/16 16:15:01;;;;;;;;;;;;;;;;;;7361768;19;1860;-66
2023/03/16 16:17:29;;;;;;;;;;;;;;;;;;7367614;19;1874;-66
2023/03/16 16:19:58;;;;;;;;;;;;;;;;;;7366251;19;1973;-67
2023/03/16 16:22:27;;;;;;;;;;;;;;;;;;7363766;19;1885;-67
2023/03/16 16:24:55;;;;;;;;;;;;;;;;;;7365668;19;1612;-67
2023/03/16 16:27:23;;;;;;;;;;;;;;;;;;7365022;19;2130;-67
2023/03/16 16:29:52;;;;;;;;;;;;;;;;;;7365712;19;1865;-66
2023/03/16 16:32:20;;;;;;;;;;;;;;;;;;7364024;19;1845;-67
2023/03/16 16:34:48;;;;;;;;;;;;;;;;;;7360309;19;1265;-67
2023/03/16 16:37:16;;;;;;;;;;;;;;;;;;7362819;19;978;-66
2023/03/16 16:39:44;;;;;;;;;;;;;;;;;;7364773;19;1856;-65
2023/03/16 16:42:12;;;;;;;;;;;;;;;;;;7362938;19;796;-65
2023/03/16 16:44:41;;;;;;;;;;;;;;;;;;7363784;19;1845;-65
2023/03/16 16:47:09;;;;;;;;;;;;;;;;;;7361915;19;1917;-66
2023/03/16 16:49:38;;;;;;;;;;;;;;;;;;7364974;19;1874;-66
2023/03/16 16:52:06;;;;;;;;;;;;;;;;;;7365200;19;1841;-66
2023/03/16 16:54:35;;;;;;;;;;;;;;;;;;7365715;19;1381;-66
2023/03/16 16:57:03;;;;;;;;;;;;;;;;;;7369157;19;869;-67
2023/03/16 16:59:32;;;;;;;;;;;;;;;;;;7368427;19;994;-67
2023/03/16 17:02:00;;;;;;;;;;;;;;;;;;7369284;19;802;-67
2023/03/16 17:04:28;;;;;;;;;;;;;;;;;;7368170;19;1361;-67
2023/03/16 17:06:57;;;;;;;;;;;;;;;;;;7368796;19;843;-65
2023/03/16 17:09:25;;;;;;;;;;;;;;;;;;7367441;19;888;-66
2023/03/16 17:11:54;;;;;;;;;;;;;;;;;;7367922;19;1842;-67
2023/03/16 17:14:26;;;;;;;;;;;;;;;;;;7366706;19;1294;-67
2023/03/16 17:16:54;;;;;;;;;;;;;;;;;;7369122;19;568;-66
2023/03/16 17:19:23;;;;;;;;;;;;;;;;;;7367902;19;848;-66
2023/03/16 17:21:51;;;;;;;;;;;;;;;;;;7368585;19;732;-66